sensor_id;sensor_type;location;lat;lon;timestamp;temperature;humidity
4376;DHT22;2202;50.866;12.750;2022-09-12T00:01:05;13.10;99.00
4376;DHT22;2202;50.866;12.750;2022-09-12T00:03:32;13.20;98.80
4376;DHT22;2202;50.866;12.750;2022-09-12T00:05:59;13.20;98.70
4376;DHT22;2202;50.866;12.750;2022-09-12T00:08:27;13.30;98.60
4376;DHT22;2202;50.866;12.750;2022-09-12T00:10:54;13.30;98.50
4376;DHT22;2202;50.866;12.750;2022-09-12T00:13:21;13.30;98.40
4376;DHT22;2202;50.866;12.750;2022-09-12T00:15:48;13.30;98.30
4376;DHT22;2202;50.866;12.750;2022-09-12T00:18:16;13.30;97.90
4376;DHT22;2202;50.866;12.750;2022-09-12T00:20:44;13.10;98.00
4376;DHT22;2202;50.866;12.750;2022-09-12T00:23:12;13.10;98.10
4376;DHT22;2202;50.866;12.750;2022-09-12T00:25:44;13.10;98.10
4376;DHT22;2202;50.866;12.750;2022-09-12T00:28:12;13.10;97.70
4376;DHT22;2202;50.866;12.750;2022-09-12T00:30:40;13.20;97.30
4376;DHT22;2202;50.866;12.750;2022-09-12T00:33:07;13.10;97.10
4376;DHT22;2202;50.866;12.750;2022-09-12T00:35:40;13.00;97.10
4376;DHT22;2202;50.866;12.750;2022-09-12T00:38:07;13.00;96.90
4376;DHT22;2202;50.866;12.750;2022-09-12T00:40:34;13.00;96.80
4376;DHT22;2202;50.866;12.750;2022-09-12T00:43:02;12.90;96.80
4376;DHT22;2202;50.866;12.750;2022-09-12T00:45:30;12.90;96.80
4376;DHT22;2202;50.866;12.750;2022-09-12T00:48:00;12.90;97.00
4376;DHT22;2202;50.866;12.750;2022-09-12T00:50:28;12.80;97.00
4376;DHT22;2202;50.866;12.750;2022-09-12T00:53:00;12.80;96.90
4376;DHT22;2202;50.866;12.750;2022-09-12T00:55:32;12.80;96.70
4376;DHT22;2202;50.866;12.750;2022-09-12T00:58:05;12.80;96.60
4376;DHT22;2202;50.866;12.750;2022-09-12T01:00:34;12.70;96.40
4376;DHT22;2202;50.866;12.750;2022-09-12T01:03:04;12.70;96.20
4376;DHT22;2202;50.866;12.750;2022-09-12T01:05:34;12.70;96.30
4376;DHT22;2202;50.866;12.750;2022-09-12T01:08:03;12.60;96.10
4376;DHT22;2202;50.866;12.750;2022-09-12T01:10:31;12.60;95.90
4376;DHT22;2202;50.866;12.750;2022-09-12T01:13:01;12.50;95.80
4376;DHT22;2202;50.866;12.750;2022-09-12T01:15:29;12.40;95.60
4376;DHT22;2202;50.866;12.750;2022-09-12T01:18:09;12.40;95.30
4376;DHT22;2202;50.866;12.750;2022-09-12T01:20:49;12.30;95.20
4376;DHT22;2202;50.866;12.750;2022-09-12T01:26:34;12.10;95.20
4376;DHT22;2202;50.866;12.750;2022-09-12T01:29:26;12.10;95.10
4376;DHT22;2202;50.866;12.750;2022-09-12T01:32:04;12.00;95.10
4376;DHT22;2202;50.866;12.750;2022-09-12T01:34:37;11.90;95.10
4376;DHT22;2202;50.866;12.750;2022-09-12T01:37:10;11.90;95.30
4376;DHT22;2202;50.866;12.750;2022-09-12T01:39:46;11.80;95.40
4376;DHT22;2202;50.866;12.750;2022-09-12T01:42:23;11.80;95.50
4376;DHT22;2202;50.866;12.750;2022-09-12T01:44:58;11.80;95.60
4376;DHT22;2202;50.866;12.750;2022-09-12T01:47:38;11.70;95.60
4376;DHT22;2202;50.866;12.750;2022-09-12T01:50:08;11.60;95.60
4376;DHT22;2202;50.866;12.750;2022-09-12T01:52:40;11.60;95.60
4376;DHT22;2202;50.866;12.750;2022-09-12T01:55:12;11.60;95.60
4376;DHT22;2202;50.866;12.750;2022-09-12T01:57:44;11.60;96.00
4376;DHT22;2202;50.866;12.750;2022-09-12T02:00:13;11.60;96.30
4376;DHT22;2202;50.866;12.750;2022-09-12T02:02:44;11.60;96.30
4376;DHT22;2202;50.866;12.750;2022-09-12T02:05:17;11.50;96.40
4376;DHT22;2202;50.866;12.750;2022-09-12T02:07:48;11.50;96.50
4376;DHT22;2202;50.866;12.750;2022-09-12T02:10:20;11.50;96.60
4376;DHT22;2202;50.866;12.750;2022-09-12T02:12:52;11.50;96.70
4376;DHT22;2202;50.866;12.750;2022-09-12T02:15:22;11.50;96.80
4376;DHT22;2202;50.866;12.750;2022-09-12T02:17:54;11.60;97.10
4376;DHT22;2202;50.866;12.750;2022-09-12T02:20:24;11.60;97.20
4376;DHT22;2202;50.866;12.750;2022-09-12T02:22:54;11.60;97.10
4376;DHT22;2202;50.866;12.750;2022-09-12T02:25:23;11.60;97.10
4376;DHT22;2202;50.866;12.750;2022-09-12T02:27:54;11.50;97.10
4376;DHT22;2202;50.866;12.750;2022-09-12T02:30:24;11.50;97.20
4376;DHT22;2202;50.866;12.750;2022-09-12T02:33:00;11.50;97.10
4376;DHT22;2202;50.866;12.750;2022-09-12T02:35:33;11.50;97.00
4376;DHT22;2202;50.866;12.750;2022-09-12T02:38:05;11.40;96.80
4376;DHT22;2202;50.866;12.750;2022-09-12T02:40:33;11.40;96.60
4376;DHT22;2202;50.866;12.750;2022-09-12T02:43:00;11.30;96.40
4376;DHT22;2202;50.866;12.750;2022-09-12T02:45:29;11.30;96.60
4376;DHT22;2202;50.866;12.750;2022-09-12T02:48:03;11.30;96.70
4376;DHT22;2202;50.866;12.750;2022-09-12T02:50:31;11.30;96.60
4376;DHT22;2202;50.866;12.750;2022-09-12T02:52:59;11.30;96.50
4376;DHT22;2202;50.866;12.750;2022-09-12T02:55:30;11.20;96.60
4376;DHT22;2202;50.866;12.750;2022-09-12T02:57:58;11.20;97.10
4376;DHT22;2202;50.866;12.750;2022-09-12T03:00:27;11.30;97.30
4376;DHT22;2202;50.866;12.750;2022-09-12T03:03:12;11.30;97.50
4376;DHT22;2202;50.866;12.750;2022-09-12T03:05:45;11.40;98.20
4376;DHT22;2202;50.866;12.750;2022-09-12T03:08:46;11.40;98.60
4376;DHT22;2202;50.866;12.750;2022-09-12T03:11:43;11.50;98.60
4376;DHT22;2202;50.866;12.750;2022-09-12T03:14:21;11.50;99.00
4376;DHT22;2202;50.866;12.750;2022-09-12T03:16:56;11.60;98.80
4376;DHT22;2202;50.866;12.750;2022-09-12T03:19:32;11.70;99.20
4376;DHT22;2202;50.866;12.750;2022-09-12T03:22:08;11.80;99.50
4376;DHT22;2202;50.866;12.750;2022-09-12T03:24:43;11.80;99.50
4376;DHT22;2202;50.866;12.750;2022-09-12T03:27:16;12.00;99.70
4376;DHT22;2202;50.866;12.750;2022-09-12T03:29:46;12.10;99.60
4376;DHT22;2202;50.866;12.750;2022-09-12T03:32:14;12.10;99.40
4376;DHT22;2202;50.866;12.750;2022-09-12T03:34:42;12.10;99.50
4376;DHT22;2202;50.866;12.750;2022-09-12T03:37:09;12.10;99.70
4376;DHT22;2202;50.866;12.750;2022-09-12T03:39:36;12.20;99.70
4376;DHT22;2202;50.866;12.750;2022-09-12T03:42:03;12.10;99.90
4376;DHT22;2202;50.866;12.750;2022-09-12T03:44:31;12.10;99.90
4376;DHT22;2202;50.866;12.750;2022-09-12T03:46:58;12.20;99.90
4376;DHT22;2202;50.866;12.750;2022-09-12T03:49:25;12.20;99.90
4376;DHT22;2202;50.866;12.750;2022-09-12T03:51:53;12.20;99.90
4376;DHT22;2202;50.866;12.750;2022-09-12T03:54:20;12.20;99.90
4376;DHT22;2202;50.866;12.750;2022-09-12T03:56:47;12.20;99.90
4376;DHT22;2202;50.866;12.750;2022-09-12T03:59:14;12.20;99.90
4376;DHT22;2202;50.866;12.750;2022-09-12T04:01:40;12.30;99.90
4376;DHT22;2202;50.866;12.750;2022-09-12T04:04:07;12.30;99.90
4376;DHT22;2202;50.866;12.750;2022-09-12T04:06:34;12.30;99.50
4376;DHT22;2202;50.866;12.750;2022-09-12T04:09:03;12.20;99.80
4376;DHT22;2202;50.866;12.750;2022-09-12T04:11:30;12.30;99.90
4376;DHT22;2202;50.866;12.750;2022-09-12T04:13:57;12.30;99.70
4376;DHT22;2202;50.866;12.750;2022-09-12T04:16:24;12.30;99.60
4376;DHT22;2202;50.866;12.750;2022-09-12T04:18:51;12.30;99.40
4376;DHT22;2202;50.866;12.750;2022-09-12T04:21:19;12.30;99.10
4376;DHT22;2202;50.866;12.750;2022-09-12T04:23:47;12.20;98.90
4376;DHT22;2202;50.866;12.750;2022-09-12T04:26:16;12.20;98.60
4376;DHT22;2202;50.866;12.750;2022-09-12T04:28:44;12.10;98.30
4376;DHT22;2202;50.866;12.750;2022-09-12T04:31:13;12.10;98.10
4376;DHT22;2202;50.866;12.750;2022-09-12T04:33:42;12.00;97.80
4376;DHT22;2202;50.866;12.750;2022-09-12T04:36:11;12.00;97.60
4376;DHT22;2202;50.866;12.750;2022-09-12T04:38:41;11.90;97.50
4376;DHT22;2202;50.866;12.750;2022-09-12T04:41:12;11.90;97.30
4376;DHT22;2202;50.866;12.750;2022-09-12T04:43:41;11.90;97.30
4376;DHT22;2202;50.866;12.750;2022-09-12T04:46:12;11.80;97.30
4376;DHT22;2202;50.866;12.750;2022-09-12T04:48:40;11.80;97.40
4376;DHT22;2202;50.866;12.750;2022-09-12T04:51:09;11.80;97.90
4376;DHT22;2202;50.866;12.750;2022-09-12T04:53:36;11.70;98.90
4376;DHT22;2202;50.866;12.750;2022-09-12T04:56:04;11.70;99.20
4376;DHT22;2202;50.866;12.750;2022-09-12T04:58:32;11.80;99.30
4376;DHT22;2202;50.866;12.750;2022-09-12T05:01:04;11.90;99.20
4376;DHT22;2202;50.866;12.750;2022-09-12T05:03:31;12.00;99.10
4376;DHT22;2202;50.866;12.750;2022-09-12T05:06:00;12.00;98.90
4376;DHT22;2202;50.866;12.750;2022-09-12T05:08:27;12.00;99.10
4376;DHT22;2202;50.866;12.750;2022-09-12T05:10:54;12.00;99.10
4376;DHT22;2202;50.866;12.750;2022-09-12T05:13:21;12.00;99.10
4376;DHT22;2202;50.866;12.750;2022-09-12T05:15:54;12.00;99.10
4376;DHT22;2202;50.866;12.750;2022-09-12T05:18:23;12.00;99.10
4376;DHT22;2202;50.866;12.750;2022-09-12T05:20:51;11.90;99.30
4376;DHT22;2202;50.866;12.750;2022-09-12T05:23:18;11.90;99.70
4376;DHT22;2202;50.866;12.750;2022-09-12T05:25:48;11.90;99.90
4376;DHT22;2202;50.866;12.750;2022-09-12T05:28:16;12.00;99.90
4376;DHT22;2202;50.866;12.750;2022-09-12T05:30:43;12.20;99.80
4376;DHT22;2202;50.866;12.750;2022-09-12T05:33:09;12.30;99.70
4376;DHT22;2202;50.866;12.750;2022-09-12T05:35:38;12.30;99.60
4376;DHT22;2202;50.866;12.750;2022-09-12T05:38:06;12.30;99.80
4376;DHT22;2202;50.866;12.750;2022-09-12T05:40:33;12.30;99.80
4376;DHT22;2202;50.866;12.750;2022-09-12T05:43:00;12.40;99.70
4376;DHT22;2202;50.866;12.750;2022-09-12T05:45:28;12.40;99.70
4376;DHT22;2202;50.866;12.750;2022-09-12T05:47:56;12.40;99.70
4376;DHT22;2202;50.866;12.750;2022-09-12T05:50:23;12.40;99.70
4376;DHT22;2202;50.866;12.750;2022-09-12T05:52:51;12.50;99.70
4376;DHT22;2202;50.866;12.750;2022-09-12T05:55:19;12.40;99.60
4376;DHT22;2202;50.866;12.750;2022-09-12T05:57:47;12.50;99.80
4376;DHT22;2202;50.866;12.750;2022-09-12T06:00:15;12.50;99.70
4376;DHT22;2202;50.866;12.750;2022-09-12T06:02:42;12.50;99.60
4376;DHT22;2202;50.866;12.750;2022-09-12T06:05:09;12.60;99.70
4376;DHT22;2202;50.866;12.750;2022-09-12T06:07:36;12.60;99.40
4376;DHT22;2202;50.866;12.750;2022-09-12T06:10:05;12.60;99.60
4376;DHT22;2202;50.866;12.750;2022-09-12T06:12:32;12.80;99.10
4376;DHT22;2202;50.866;12.750;2022-09-12T06:14:59;12.90;98.80
4376;DHT22;2202;50.866;12.750;2022-09-12T06:17:26;12.90;98.90
4376;DHT22;2202;50.866;12.750;2022-09-12T06:19:53;13.00;98.60
4376;DHT22;2202;50.866;12.750;2022-09-12T06:22:21;13.10;98.40
4376;DHT22;2202;50.866;12.750;2022-09-12T06:24:48;13.10;98.40
4376;DHT22;2202;50.866;12.750;2022-09-12T06:27:17;13.00;98.30
4376;DHT22;2202;50.866;12.750;2022-09-12T06:29:44;13.10;98.20
4376;DHT22;2202;50.866;12.750;2022-09-12T06:32:11;13.00;98.00
4376;DHT22;2202;50.866;12.750;2022-09-12T06:34:38;13.10;98.10
4376;DHT22;2202;50.866;12.750;2022-09-12T06:37:05;13.10;98.20
4376;DHT22;2202;50.866;12.750;2022-09-12T06:39:32;13.30;98.40
4376;DHT22;2202;50.866;12.750;2022-09-12T06:42:01;13.50;97.80
4376;DHT22;2202;50.866;12.750;2022-09-12T06:44:29;13.80;97.70
4376;DHT22;2202;50.866;12.750;2022-09-12T06:46:56;14.10;96.80
4376;DHT22;2202;50.866;12.750;2022-09-12T06:49:23;14.50;95.70
4376;DHT22;2202;50.866;12.750;2022-09-12T06:51:50;14.90;94.90
4376;DHT22;2202;50.866;12.750;2022-09-12T06:54:17;15.30;93.40
4376;DHT22;2202;50.866;12.750;2022-09-12T06:56:44;15.50;92.70
4376;DHT22;2202;50.866;12.750;2022-09-12T06:59:11;16.00;92.70
4376;DHT22;2202;50.866;12.750;2022-09-12T07:01:40;16.20;90.90
4376;DHT22;2202;50.866;12.750;2022-09-12T07:04:07;16.30;89.60
4376;DHT22;2202;50.866;12.750;2022-09-12T07:06:36;16.50;89.80
4376;DHT22;2202;50.866;12.750;2022-09-12T07:09:06;16.90;90.00
4376;DHT22;2202;50.866;12.750;2022-09-12T07:11:35;17.10;87.80
4376;DHT22;2202;50.866;12.750;2022-09-12T07:14:04;17.30;86.20
4376;DHT22;2202;50.866;12.750;2022-09-12T07:16:31;17.50;84.20
4376;DHT22;2202;50.866;12.750;2022-09-12T07:19:02;17.50;82.40
4376;DHT22;2202;50.866;12.750;2022-09-12T07:21:30;17.50;82.80
4376;DHT22;2202;50.866;12.750;2022-09-12T07:23:57;17.70;80.80
4376;DHT22;2202;50.866;12.750;2022-09-12T07:26:27;17.60;84.40
4376;DHT22;2202;50.866;12.750;2022-09-12T07:28:55;17.80;82.20
4376;DHT22;2202;50.866;12.750;2022-09-12T07:31:25;17.90;82.60
4376;DHT22;2202;50.866;12.750;2022-09-12T07:33:52;17.70;84.00
4376;DHT22;2202;50.866;12.750;2022-09-12T07:36:22;17.70;80.40
4376;DHT22;2202;50.866;12.750;2022-09-12T07:38:53;17.60;83.00
4376;DHT22;2202;50.866;12.750;2022-09-12T07:41:23;17.90;81.00
4376;DHT22;2202;50.866;12.750;2022-09-12T07:43:51;18.10;80.40
4376;DHT22;2202;50.866;12.750;2022-09-12T07:46:18;18.30;79.00
4376;DHT22;2202;50.866;12.750;2022-09-12T07:48:49;18.40;79.80
4376;DHT22;2202;50.866;12.750;2022-09-12T07:51:17;18.40;79.00
4376;DHT22;2202;50.866;12.750;2022-09-12T07:53:46;18.50;78.60
4376;DHT22;2202;50.866;12.750;2022-09-12T07:56:14;18.70;77.40
4376;DHT22;2202;50.866;12.750;2022-09-12T07:58:42;18.70;77.40
4376;DHT22;2202;50.866;12.750;2022-09-12T08:01:11;18.90;79.60
4376;DHT22;2202;50.866;12.750;2022-09-12T08:03:38;18.90;75.00
4376;DHT22;2202;50.866;12.750;2022-09-12T08:06:13;18.80;77.20
4376;DHT22;2202;50.866;12.750;2022-09-12T08:08:41;18.50;77.20
4376;DHT22;2202;50.866;12.750;2022-09-12T08:11:11;18.50;77.80
4376;DHT22;2202;50.866;12.750;2022-09-12T08:13:40;18.60;78.40
4376;DHT22;2202;50.866;12.750;2022-09-12T08:16:11;18.80;77.40
4376;DHT22;2202;50.866;12.750;2022-09-12T08:18:38;19.00;77.60
4376;DHT22;2202;50.866;12.750;2022-09-12T08:21:08;19.20;78.40
4376;DHT22;2202;50.866;12.750;2022-09-12T08:23:35;19.20;77.00
4376;DHT22;2202;50.866;12.750;2022-09-12T08:26:03;19.40;75.00
4376;DHT22;2202;50.866;12.750;2022-09-12T08:28:34;19.30;73.40
4376;DHT22;2202;50.866;12.750;2022-09-12T08:31:02;19.40;73.60
4376;DHT22;2202;50.866;12.750;2022-09-12T08:33:30;19.50;74.80
4376;DHT22;2202;50.866;12.750;2022-09-12T08:36:05;19.80;72.60
4376;DHT22;2202;50.866;12.750;2022-09-12T08:38:33;19.90;72.00
4376;DHT22;2202;50.866;12.750;2022-09-12T08:41:05;20.10;75.00
4376;DHT22;2202;50.866;12.750;2022-09-12T08:43:49;20.20;66.60
4376;DHT22;2202;50.866;12.750;2022-09-12T08:46:19;20.20;69.00
4376;DHT22;2202;50.866;12.750;2022-09-12T08:48:48;19.90;64.80
4376;DHT22;2202;50.866;12.750;2022-09-12T08:51:16;19.20;67.40
4376;DHT22;2202;50.866;12.750;2022-09-12T08:53:46;19.00;67.00
4376;DHT22;2202;50.866;12.750;2022-09-12T08:56:15;18.50;71.00
4376;DHT22;2202;50.866;12.750;2022-09-12T08:58:44;18.50;71.60
4376;DHT22;2202;50.866;12.750;2022-09-12T09:01:17;18.60;73.60
4376;DHT22;2202;50.866;12.750;2022-09-12T09:04:24;18.70;74.00
4376;DHT22;2202;50.866;12.750;2022-09-12T09:07:05;19.10;73.00
4376;DHT22;2202;50.866;12.750;2022-09-12T09:09:50;19.60;69.80
4376;DHT22;2202;50.866;12.750;2022-09-12T09:12:28;19.60;70.80
4376;DHT22;2202;50.866;12.750;2022-09-12T09:15:13;19.90;69.40
4376;DHT22;2202;50.866;12.750;2022-09-12T09:17:49;20.10;65.80
4376;DHT22;2202;50.866;12.750;2022-09-12T09:20:22;20.60;63.60
4376;DHT22;2202;50.866;12.750;2022-09-12T09:22:57;20.40;65.20
4376;DHT22;2202;50.866;12.750;2022-09-12T09:25:37;20.20;65.40
4376;DHT22;2202;50.866;12.750;2022-09-12T09:28:09;20.40;63.60
4376;DHT22;2202;50.866;12.750;2022-09-12T09:30:39;19.90;63.80
4376;DHT22;2202;50.866;12.750;2022-09-12T09:33:16;19.50;69.20
4376;DHT22;2202;50.866;12.750;2022-09-12T09:35:46;19.50;69.20
4376;DHT22;2202;50.866;12.750;2022-09-12T09:38:22;19.40;68.60
4376;DHT22;2202;50.866;12.750;2022-09-12T09:40:58;19.00;70.80
4376;DHT22;2202;50.866;12.750;2022-09-12T09:43:30;18.80;70.60
4376;DHT22;2202;50.866;12.750;2022-09-12T09:45:58;18.50;72.00
4376;DHT22;2202;50.866;12.750;2022-09-12T09:48:27;18.20;67.20
4376;DHT22;2202;50.866;12.750;2022-09-12T09:50:57;18.30;74.00
4376;DHT22;2202;50.866;12.750;2022-09-12T09:53:35;18.70;72.80
4376;DHT22;2202;50.866;12.750;2022-09-12T09:56:08;18.60;73.20
4376;DHT22;2202;50.866;12.750;2022-09-12T09:58:38;19.00;72.00
4376;DHT22;2202;50.866;12.750;2022-09-12T10:01:13;19.30;66.40
4376;DHT22;2202;50.866;12.750;2022-09-12T10:03:47;19.40;65.20
4376;DHT22;2202;50.866;12.750;2022-09-12T10:06:24;19.40;69.40
4376;DHT22;2202;50.866;12.750;2022-09-12T10:09:16;19.50;65.40
4376;DHT22;2202;50.866;12.750;2022-09-12T10:11:43;19.30;64.80
4376;DHT22;2202;50.866;12.750;2022-09-12T10:14:33;18.80;66.00
4376;DHT22;2202;50.866;12.750;2022-09-12T10:19:47;18.50;63.80
4376;DHT22;2202;50.866;12.750;2022-09-12T10:22:17;19.00;66.20
4376;DHT22;2202;50.866;12.750;2022-09-12T10:24:47;19.00;63.60
4376;DHT22;2202;50.866;12.750;2022-09-12T10:27:17;19.30;65.60
4376;DHT22;2202;50.866;12.750;2022-09-12T10:29:47;19.60;65.20
4376;DHT22;2202;50.866;12.750;2022-09-12T10:32:23;19.90;62.60
4376;DHT22;2202;50.866;12.750;2022-09-12T10:34:53;19.80;62.80
4376;DHT22;2202;50.866;12.750;2022-09-12T10:37:25;19.80;61.20
4376;DHT22;2202;50.866;12.750;2022-09-12T10:39:56;20.20;64.80
4376;DHT22;2202;50.866;12.750;2022-09-12T10:42:48;20.70;63.20
4376;DHT22;2202;50.866;12.750;2022-09-12T10:45:20;20.90;61.00
4376;DHT22;2202;50.866;12.750;2022-09-12T10:47:51;20.60;56.20
4376;DHT22;2202;50.866;12.750;2022-09-12T10:50:23;20.50;58.30
4376;DHT22;2202;50.866;12.750;2022-09-12T10:52:51;20.00;55.10
4376;DHT22;2202;50.866;12.750;2022-09-12T10:55:23;19.70;59.20
4376;DHT22;2202;50.866;12.750;2022-09-12T10:58:05;19.90;58.30
4376;DHT22;2202;50.866;12.750;2022-09-12T11:00:38;20.40;58.00
4376;DHT22;2202;50.866;12.750;2022-09-12T11:03:15;20.70;54.40
4376;DHT22;2202;50.866;12.750;2022-09-12T11:05:55;21.00;55.30
4376;DHT22;2202;50.866;12.750;2022-09-12T11:08:42;21.10;53.90
4376;DHT22;2202;50.866;12.750;2022-09-12T11:11:24;20.50;49.60
4376;DHT22;2202;50.866;12.750;2022-09-12T11:14:05;20.80;53.00
4376;DHT22;2202;50.866;12.750;2022-09-12T11:16:42;21.20;55.00
4376;DHT22;2202;50.866;12.750;2022-09-12T11:19:24;21.50;48.80
4376;DHT22;2202;50.866;12.750;2022-09-12T11:25:00;21.50;50.50
4376;DHT22;2202;50.866;12.750;2022-09-12T11:27:43;21.60;48.40
4376;DHT22;2202;50.866;12.750;2022-09-12T11:30:14;21.40;46.40
4376;DHT22;2202;50.866;12.750;2022-09-12T11:33:05;21.40;47.90
4376;DHT22;2202;50.866;12.750;2022-09-12T11:35:42;21.10;47.50
4376;DHT22;2202;50.866;12.750;2022-09-12T11:38:45;21.40;49.50
4376;DHT22;2202;50.866;12.750;2022-09-12T11:41:17;21.50;44.70
4376;DHT22;2202;50.866;12.750;2022-09-12T11:43:48;21.40;49.10
4376;DHT22;2202;50.866;12.750;2022-09-12T11:46:20;20.90;51.80
4376;DHT22;2202;50.866;12.750;2022-09-12T11:48:54;20.50;53.20
4376;DHT22;2202;50.866;12.750;2022-09-12T11:51:27;20.20;56.00
4376;DHT22;2202;50.866;12.750;2022-09-12T11:54:02;20.60;54.80
4376;DHT22;2202;50.866;12.750;2022-09-12T11:56:30;21.00;55.30
4376;DHT22;2202;50.866;12.750;2022-09-12T11:59:01;21.40;51.40
4376;DHT22;2202;50.866;12.750;2022-09-12T12:01:33;21.40;54.10
4376;DHT22;2202;50.866;12.750;2022-09-12T12:04:07;21.60;51.80
4376;DHT22;2202;50.866;12.750;2022-09-12T12:06:44;21.90;51.40
4376;DHT22;2202;50.866;12.750;2022-09-12T12:09:12;21.60;52.30
4376;DHT22;2202;50.866;12.750;2022-09-12T12:11:43;21.60;50.20
4376;DHT22;2202;50.866;12.750;2022-09-12T12:14:15;21.20;49.10
4376;DHT22;2202;50.866;12.750;2022-09-12T12:16:43;20.90;52.70
4376;DHT22;2202;50.866;12.750;2022-09-12T12:19:30;20.80;54.40
4376;DHT22;2202;50.866;12.750;2022-09-12T12:22:07;20.80;51.40
4376;DHT22;2202;50.866;12.750;2022-09-12T12:24:34;20.80;52.70
4376;DHT22;2202;50.866;12.750;2022-09-12T12:27:23;20.70;52.50
4376;DHT22;2202;50.866;12.750;2022-09-12T12:29:51;20.80;53.90
4376;DHT22;2202;50.866;12.750;2022-09-12T12:32:21;20.80;54.60
4376;DHT22;2202;50.866;12.750;2022-09-12T12:34:48;20.90;55.30
4376;DHT22;2202;50.866;12.750;2022-09-12T12:37:51;21.30;53.50
4376;DHT22;2202;50.866;12.750;2022-09-12T12:40:23;21.60;48.40
4376;DHT22;2202;50.866;12.750;2022-09-12T12:43:13;21.00;51.80
4376;DHT22;2202;50.866;12.750;2022-09-12T12:46:05;21.20;53.90
4376;DHT22;2202;50.866;12.750;2022-09-12T12:51:36;21.80;49.80
4376;DHT22;2202;50.866;12.750;2022-09-12T12:54:29;22.30;47.90
4376;DHT22;2202;50.866;12.750;2022-09-12T12:57:04;22.30;47.00
4376;DHT22;2202;50.866;12.750;2022-09-12T12:59:32;22.00;49.30
4376;DHT22;2202;50.866;12.750;2022-09-12T13:01:59;21.90;51.10
4376;DHT22;2202;50.866;12.750;2022-09-12T13:04:28;21.90;50.00
4376;DHT22;2202;50.866;12.750;2022-09-12T13:06:59;21.60;50.20
4376;DHT22;2202;50.866;12.750;2022-09-12T13:09:31;21.70;49.60
4376;DHT22;2202;50.866;12.750;2022-09-12T13:12:04;21.70;50.00
4376;DHT22;2202;50.866;12.750;2022-09-12T13:14:48;21.40;50.90
4376;DHT22;2202;50.866;12.750;2022-09-12T13:17:21;20.90;54.30
4376;DHT22;2202;50.866;12.750;2022-09-12T13:19:51;21.00;55.10
4376;DHT22;2202;50.866;12.750;2022-09-12T13:22:22;20.90;54.10
4376;DHT22;2202;50.866;12.750;2022-09-12T13:24:51;21.20;53.00
4376;DHT22;2202;50.866;12.750;2022-09-12T13:27:19;21.50;48.90
4376;DHT22;2202;50.866;12.750;2022-09-12T13:29:47;21.50;53.00
4376;DHT22;2202;50.866;12.750;2022-09-12T13:32:15;21.50;50.90
4376;DHT22;2202;50.866;12.750;2022-09-12T13:34:56;21.60;50.50
4376;DHT22;2202;50.866;12.750;2022-09-12T13:37:39;21.70;51.90
4376;DHT22;2202;50.866;12.750;2022-09-12T13:40:22;21.90;51.10
4376;DHT22;2202;50.866;12.750;2022-09-12T13:43:06;21.90;49.30
4376;DHT22;2202;50.866;12.750;2022-09-12T13:45:36;21.80;48.40
4376;DHT22;2202;50.866;12.750;2022-09-12T13:48:06;21.60;52.80
4376;DHT22;2202;50.866;12.750;2022-09-12T13:50:40;21.60;49.10
4376;DHT22;2202;50.866;12.750;2022-09-12T13:53:14;21.70;49.30
4376;DHT22;2202;50.866;12.750;2022-09-12T13:55:46;21.70;48.40
4376;DHT22;2202;50.866;12.750;2022-09-12T13:58:20;21.70;48.40
4376;DHT22;2202;50.866;12.750;2022-09-12T14:01:00;21.70;48.60
4376;DHT22;2202;50.866;12.750;2022-09-12T14:03:29;21.90;47.70
4376;DHT22;2202;50.866;12.750;2022-09-12T14:06:14;21.90;48.40
4376;DHT22;2202;50.866;12.750;2022-09-12T14:08:43;22.00;47.70
4376;DHT22;2202;50.866;12.750;2022-09-12T14:11:20;22.10;49.80
4376;DHT22;2202;50.866;12.750;2022-09-12T14:13:49;22.10;48.20
4376;DHT22;2202;50.866;12.750;2022-09-12T14:16:17;22.10;45.40
4376;DHT22;2202;50.866;12.750;2022-09-12T14:18:46;22.10;46.30
4376;DHT22;2202;50.866;12.750;2022-09-12T14:21:25;22.10;47.90
4376;DHT22;2202;50.866;12.750;2022-09-12T14:23:56;21.80;46.30
4376;DHT22;2202;50.866;12.750;2022-09-12T14:26:26;21.70;48.60
4376;DHT22;2202;50.866;12.750;2022-09-12T14:28:57;21.40;50.70
4376;DHT22;2202;50.866;12.750;2022-09-12T14:31:28;21.50;52.50
4376;DHT22;2202;50.866;12.750;2022-09-12T14:34:08;21.50;49.10
4376;DHT22;2202;50.866;12.750;2022-09-12T14:36:39;21.40;48.40
4376;DHT22;2202;50.866;12.750;2022-09-12T14:39:21;21.20;52.80
4376;DHT22;2202;50.866;12.750;2022-09-12T14:41:58;21.20;50.70
4376;DHT22;2202;50.866;12.750;2022-09-12T14:44:27;21.00;54.80
4376;DHT22;2202;50.866;12.750;2022-09-12T14:46:57;21.00;52.70
4376;DHT22;2202;50.866;12.750;2022-09-12T14:49:30;21.00;49.30
4376;DHT22;2202;50.866;12.750;2022-09-12T14:52:00;20.80;50.30
4376;DHT22;2202;50.866;12.750;2022-09-12T14:54:36;20.60;52.30
4376;DHT22;2202;50.866;12.750;2022-09-12T14:57:16;20.60;56.00
4376;DHT22;2202;50.866;12.750;2022-09-12T15:02:47;20.50;50.00
4376;DHT22;2202;50.866;12.750;2022-09-12T15:05:19;20.40;55.00
4376;DHT22;2202;50.866;12.750;2022-09-12T15:08:01;20.40;54.40
4376;DHT22;2202;50.866;12.750;2022-09-12T15:10:29;20.40;51.60
4376;DHT22;2202;50.866;12.750;2022-09-12T15:13:17;20.40;56.40
4376;DHT22;2202;50.866;12.750;2022-09-12T15:15:46;20.40;51.40
4376;DHT22;2202;50.866;12.750;2022-09-12T15:18:14;20.30;58.30
4376;DHT22;2202;50.866;12.750;2022-09-12T15:20:42;20.40;52.80
4376;DHT22;2202;50.866;12.750;2022-09-12T15:23:15;20.40;56.90
4376;DHT22;2202;50.866;12.750;2022-09-12T15:25:43;20.50;53.00
4376;DHT22;2202;50.866;12.750;2022-09-12T15:28:19;20.40;56.90
4376;DHT22;2202;50.866;12.750;2022-09-12T15:30:48;20.40;58.70
4376;DHT22;2202;50.866;12.750;2022-09-12T15:33:16;20.40;58.70
4376;DHT22;2202;50.866;12.750;2022-09-12T15:35:44;20.40;57.40
4376;DHT22;2202;50.866;12.750;2022-09-12T15:38:11;20.30;56.20
4376;DHT22;2202;50.866;12.750;2022-09-12T15:40:38;20.30;53.40
4376;DHT22;2202;50.866;12.750;2022-09-12T15:43:06;20.20;59.20
4376;DHT22;2202;50.866;12.750;2022-09-12T15:45:34;20.20;58.50
4376;DHT22;2202;50.866;12.750;2022-09-12T15:48:01;20.10;57.10
4376;DHT22;2202;50.866;12.750;2022-09-12T15:50:29;20.00;63.80
4376;DHT22;2202;50.866;12.750;2022-09-12T15:52:57;20.00;62.60
4376;DHT22;2202;50.866;12.750;2022-09-12T15:55:26;20.00;59.40
4376;DHT22;2202;50.866;12.750;2022-09-12T15:57:54;20.00;61.20
4376;DHT22;2202;50.866;12.750;2022-09-12T16:00:21;20.00;64.20
4376;DHT22;2202;50.866;12.750;2022-09-12T16:02:51;19.90;64.00
4376;DHT22;2202;50.866;12.750;2022-09-12T16:05:20;19.90;64.00
4376;DHT22;2202;50.866;12.750;2022-09-12T16:07:50;19.80;60.20
4376;DHT22;2202;50.866;12.750;2022-09-12T16:10:19;19.70;62.40
4376;DHT22;2202;50.866;12.750;2022-09-12T16:12:46;19.60;62.20
4376;DHT22;2202;50.866;12.750;2022-09-12T16:15:15;19.50;63.80
4376;DHT22;2202;50.866;12.750;2022-09-12T16:17:43;19.50;65.00
4376;DHT22;2202;50.866;12.750;2022-09-12T16:20:11;19.40;66.80
4376;DHT22;2202;50.866;12.750;2022-09-12T16:22:38;19.40;66.00
4376;DHT22;2202;50.866;12.750;2022-09-12T16:25:06;19.40;66.60
4376;DHT22;2202;50.866;12.750;2022-09-12T16:27:34;19.40;67.00